Terminal Aerodrome Forecast
Issued by NWS

Home | Current Version | Previous Version | Text Only | Print | Product List | Glossary On
Versions: 1 2 3 4 5 6 7 8 9 10 11 12
773
FTUS43 KSGF 011120
TAFBBG
TAF
KBBG 011120Z 0112/0212 VRB03KT P6SM BKN040
      TEMPO 0112/0114 5SM BR
     FM011500 31005KT P6SM BKN040
     FM020000 VRB03KT P6SM SKC
      TEMPO 0209/0212 3SM BR=

USA.gov is the U.S. government's official web portal to all federal, state and local government web resources and services.